createdAt,value
2022-08-05T00:04:57.084Z,10.93
2022-08-05T00:09:58.788Z,14.20
2022-08-05T00:15:13.948Z,12.85
2022-08-05T00:20:22.110Z,14.75
2022-08-05T00:25:45.552Z,14.80
2022-08-05T00:30:52.039Z,15.68
2022-08-05T00:36:16.333Z,15.15
2022-08-05T00:41:28.356Z,18.33
2022-08-05T00:46:54.065Z,17.60
2022-08-05T00:52:03.722Z,17.67
2022-08-05T00:57:05.488Z,21.35
2022-08-05T01:02:07.577Z,19.58
2022-08-05T01:07:13.574Z,26.48
2022-08-05T01:12:19.170Z,25.05
2022-08-05T01:17:40.325Z,22.55
2022-08-05T01:23:15.218Z,22.90
2022-08-05T01:28:24.688Z,23.52
2022-08-05T01:33:35.126Z,24.67
2022-08-05T01:38:37.985Z,24.08
2022-08-05T01:43:40.637Z,26.35
2022-08-05T01:48:44.816Z,23.73
2022-08-05T01:53:58.004Z,22.33
2022-08-05T01:59:08.926Z,24.02
2022-08-05T02:04:11.759Z,25.15
2022-08-05T02:09:14.610Z,23.55
2022-08-05T02:14:21.702Z,16.35
2022-08-05T02:19:28.265Z,15.80
2022-08-05T02:24:37.481Z,16.30
2022-08-05T02:29:59.441Z,15.68
2022-08-05T02:35:13.745Z,13.80
2022-08-05T02:40:18.390Z,13.40
2022-08-05T02:45:24.105Z,15.50
2022-08-05T02:50:27.789Z,23.90
2022-08-05T02:55:54.814Z,29.88
2022-08-05T03:00:58.754Z,24.13
2022-08-05T03:06:56.936Z,24.25
2022-08-05T03:11:54.693Z,26.00
2022-08-05T03:16:47.182Z,27.98
2022-08-05T03:21:50.142Z,24.55
2022-08-05T03:26:51.944Z,27.17
2022-08-05T03:31:56.839Z,29.25
2022-08-05T03:37:00.123Z,27.92
2022-08-05T03:42:01.776Z,29.30
2022-08-05T03:47:03.696Z,25.45
2022-08-05T03:52:38.912Z,27.25
2022-08-05T03:57:41.610Z,25.77
2022-08-05T04:02:58.092Z,31.65
2022-08-05T04:08:03.346Z,27.63
2022-08-05T04:18:12.761Z,27.35
2022-08-05T04:24:05.003Z,30.70
2022-08-05T04:28:51.193Z,31.73
2022-08-05T04:34:19.081Z,28.60
2022-08-05T04:39:15.595Z,27.75
2022-08-05T04:44:24.465Z,25.13
2022-08-05T04:49:38.377Z,27.10
2022-08-05T04:54:53.808Z,24.13
2022-08-05T04:59:58.945Z,21.65
2022-08-05T05:05:02.250Z,25.30
2022-08-05T05:10:06.606Z,18.48
2022-08-05T05:15:10.893Z,21.42
2022-08-05T05:20:13.577Z,19.65
2022-08-05T05:25:16.749Z,17.20
2022-08-05T05:30:31.413Z,20.92
2022-08-05T05:35:39.767Z,20.03
2022-08-05T05:40:49.646Z,22.67
2022-08-05T05:45:53.170Z,15.25
2022-08-05T05:50:54.802Z,14.95
2022-08-05T05:56:00.885Z,15.23
2022-08-05T06:01:12.710Z,12.65
2022-08-05T06:06:16.777Z,12.27
2022-08-05T06:11:18.698Z,13.05
2022-08-05T06:16:29.347Z,10.27
2022-08-05T06:21:36.657Z,13.10
2022-08-05T06:26:51.306Z,13.47
2022-08-05T06:31:54.348Z,22.40
2022-08-05T06:36:58.168Z,11.88
2022-08-05T06:42:04.213Z,12.02
2022-08-05T06:47:06.315Z,11.93
2022-08-05T06:52:36.851Z,14.00
2022-08-05T06:57:57.809Z,11.70
2022-08-05T07:02:55.985Z,12.38
2022-08-05T07:07:57.674Z,10.10
2022-08-05T07:13:46.352Z,8.50
2022-08-05T07:18:39.772Z,10.20
2022-08-05T07:23:50.595Z,8.35
2022-08-05T07:28:54.148Z,7.72
2022-08-05T07:33:55.900Z,8.02
2022-08-05T07:39:05.756Z,7.72
2022-08-05T07:44:14.291Z,8.87
2022-08-05T07:49:20.850Z,7.50
2022-08-05T07:54:31.465Z,9.57
2022-08-05T07:59:39.952Z,12.02
2022-08-05T08:04:42.377Z,9.18
2022-08-05T08:09:48.105Z,8.95
2022-08-05T08:14:49.934Z,10.30
2022-08-05T08:20:43.728Z,8.52
2022-08-05T08:25:16.188Z,7.43
2022-08-05T08:30:33.919Z,8.15
2022-08-05T08:35:41.282Z,7.47
2022-08-05T08:40:54.240Z,7.25
2022-08-05T08:45:59.090Z,4.85
2022-08-05T08:52:01.655Z,4.85
2022-08-05T08:56:28.305Z,4.40
2022-08-05T09:01:31.469Z,8.23
2022-08-05T09:06:33.293Z,4.55
2022-08-05T09:11:52.457Z,2.88
2022-08-05T09:16:55.964Z,3.17
2022-08-05T09:22:22.531Z,4.63
2022-08-05T09:28:05.998Z,6.28
2022-08-05T09:33:02.264Z,5.53
2022-08-05T09:38:16.853Z,7.38
2022-08-05T09:43:46.554Z,5.75
2022-08-05T09:49:06.512Z,6.65
2022-08-05T09:54:11.406Z,9.13
2022-08-05T09:59:17.162Z,10.10
2022-08-05T10:04:19.062Z,11.50
2022-08-05T10:09:31.109Z,8.38
2022-08-05T10:14:47.223Z,9.47
2022-08-05T10:20:04.399Z,9.10
2022-08-05T10:25:14.360Z,11.82
2022-08-05T10:31:20.213Z,12.85
2022-08-05T10:35:40.562Z,11.65
2022-08-05T10:40:52.224Z,12.85
2022-08-05T10:46:06.964Z,12.63
2022-08-05T10:51:22.436Z,11.93
2022-08-05T10:56:36.409Z,14.48
2022-08-05T11:01:54.068Z,16.02
2022-08-05T11:06:57.676Z,11.57
2022-08-05T11:11:59.434Z,11.50
2022-08-05T11:17:57.253Z,9.10
2022-08-05T11:22:53.649Z,12.27
2022-08-05T11:28:17.102Z,6.93
2022-08-05T11:33:48.748Z,7.20
2022-08-05T11:38:54.426Z,6.28
2022-08-05T11:44:06.070Z,9.37
2022-08-05T11:49:15.009Z,4.82
2022-08-05T11:54:33.554Z,4.75
2022-08-05T11:59:50.055Z,5.40
2022-08-05T12:04:59.293Z,6.07
2022-08-05T12:10:09.080Z,6.93
2022-08-05T12:15:20.916Z,6.10
2022-08-05T12:20:40.625Z,5.18
2022-08-05T12:26:09.320Z,3.45
2022-08-05T12:31:11.216Z,4.28
2022-08-05T12:36:25.360Z,3.50
2022-08-05T12:41:34.300Z,6.03
2022-08-05T12:46:38.559Z,3.92
2022-08-05T12:52:12.789Z,3.55
2022-08-05T12:57:14.136Z,4.90
2022-08-05T13:02:30.207Z,3.80
2022-08-05T13:07:57.700Z,3.50
2022-08-05T13:12:58.272Z,3.20
2022-08-05T13:18:00.396Z,2.85
2022-08-05T13:23:02.847Z,4.50
2022-08-05T13:28:10.447Z,3.60
2022-08-05T13:33:14.288Z,3.58
2022-08-05T13:38:38.479Z,2.17
2022-08-05T13:43:54.955Z,2.17
2022-08-05T13:49:00.883Z,2.42
2022-08-05T13:54:02.875Z,9.03
2022-08-05T13:59:06.046Z,4.28
2022-08-05T14:04:43.109Z,3.55
2022-08-05T14:09:52.249Z,3.22
2022-08-05T14:14:53.954Z,4.22
2022-08-05T14:20:00.926Z,3.33
2022-08-05T14:25:21.656Z,3.88
2022-08-05T14:30:26.617Z,2.63
2022-08-05T14:35:37.020Z,3.47
2022-08-05T14:40:51.708Z,4.07
2022-08-05T14:45:53.353Z,5.07
2022-08-05T14:50:55.379Z,3.75
2022-08-05T14:55:57.224Z,4.38
2022-08-05T15:01:00.432Z,4.20
2022-08-05T15:06:08.295Z,3.10
2022-08-05T15:11:15.320Z,2.40
2022-08-05T15:16:17.889Z,2.53
2022-08-05T15:21:21.068Z,2.00
2022-08-05T15:26:31.987Z,4.03
2022-08-05T15:31:34.585Z,2.83
2022-08-05T15:36:36.779Z,3.30
2022-08-05T15:41:58.032Z,3.28
2022-08-05T15:47:01.884Z,2.35
2022-08-05T15:52:14.207Z,2.38
2022-08-05T15:57:19.643Z,1.73
2022-08-05T16:02:25.524Z,2.45
2022-08-05T16:07:31.136Z,3.13
2022-08-05T16:12:32.782Z,2.13
2022-08-05T16:17:34.642Z,2.83
2022-08-05T16:22:36.388Z,3.30
2022-08-05T16:28:00.220Z,3.50
2022-08-05T16:33:02.146Z,1.65
2022-08-05T17:02:39.834Z,1.05
2022-08-05T17:37:32.129Z,1.65
2022-08-05T17:42:30.093Z,1.10
2022-08-05T17:47:34.213Z,1.38
2022-08-05T17:52:52.692Z,2.35
2022-08-05T17:58:00.456Z,2.58
2022-08-05T18:03:02.274Z,1.57
2022-08-05T18:08:05.664Z,1.58
2022-08-05T18:13:12.540Z,1.17
2022-08-05T18:18:14.660Z,0.90
2022-08-05T18:23:18.505Z,0.55
2022-08-05T18:28:22.031Z,0.85
2022-08-05T18:33:37.553Z,1.52
2022-08-05T18:38:48.738Z,0.60
2022-08-05T18:43:51.909Z,0.90
2022-08-05T18:48:54.172Z,1.83
2022-08-05T18:53:56.055Z,1.00
2022-08-05T18:59:00.758Z,1.30
2022-08-05T19:04:03.282Z,3.17
2022-08-05T19:09:07.274Z,2.88
2022-08-05T19:15:00.010Z,1.27
2022-08-05T19:19:30.861Z,1.77
2022-08-05T19:24:34.503Z,1.30
2022-08-05T19:29:37.200Z,1.95
2022-08-05T19:34:40.840Z,3.50
2022-08-05T19:39:45.697Z,1.00
2022-08-05T19:44:53.643Z,3.35
2022-08-05T19:50:00.801Z,1.65
2022-08-05T19:55:07.037Z,1.52
2022-08-05T20:00:10.914Z,1.73
2022-08-05T20:05:16.587Z,0.70
2022-08-05T20:10:26.546Z,2.30
2022-08-05T20:15:51.944Z,1.00
2022-08-05T20:20:50.902Z,1.30
2022-08-05T20:25:54.324Z,1.95
2022-08-05T20:30:56.054Z,1.20
2022-08-05T20:35:57.752Z,2.13
2022-08-05T20:41:00.207Z,2.85
2022-08-05T20:46:06.800Z,1.57
2022-08-05T20:51:08.540Z,1.27
2022-08-05T20:56:10.241Z,1.33
2022-08-05T21:01:11.938Z,2.03
2022-08-05T21:06:28.502Z,1.08
2022-08-05T21:12:09.747Z,0.95
2022-08-05T21:16:53.244Z,2.35
2022-08-05T21:21:55.201Z,2.83
2022-08-05T21:26:58.334Z,1.02
2022-08-05T21:32:04.278Z,2.70
2022-08-05T21:37:08.029Z,2.08
2022-08-05T21:42:40.891Z,1.33
2022-08-05T21:47:55.129Z,1.55
2022-08-05T21:52:58.762Z,3.20
2022-08-05T21:58:06.525Z,2.28
2022-08-05T22:03:09.804Z,3.30
2022-08-05T22:08:22.535Z,2.83
2022-08-05T22:14:33.978Z,2.10
2022-08-05T22:18:49.171Z,4.10
2022-08-05T22:24:13.174Z,1.88
2022-08-05T22:29:32.921Z,0.90
2022-08-05T22:34:35.060Z,2.15
2022-08-05T22:39:38.029Z,1.30
2022-08-05T22:44:42.641Z,1.70
2022-08-05T22:50:20.635Z,1.08
2022-08-05T22:55:19.010Z,2.15
2022-08-05T23:00:23.672Z,1.00
2022-08-05T23:05:25.478Z,1.65
2022-08-05T23:10:27.125Z,1.58
2022-08-05T23:15:35.218Z,1.92
2022-08-05T23:20:38.256Z,2.25
2022-08-05T23:25:52.619Z,1.70
2022-08-05T23:31:16.247Z,0.95
2022-08-05T23:36:19.302Z,1.67
2022-08-05T23:41:21.430Z,1.60
2022-08-05T23:46:23.726Z,3.05
2022-08-05T23:51:25.529Z,1.42
2022-08-05T23:56:27.834Z,1.73
